sensor_id;sensor_type;location;lat;lon;timestamp;temperature;humidity
56428;DHT22;42331;53.578;9.760;2022-08-11T14:32:14;28.50;78.30
56428;DHT22;42331;53.578;9.760;2022-08-11T14:34:45;28.50;77.70
56428;DHT22;42331;53.578;9.760;2022-08-11T14:37:20;28.50;77.30
56428;DHT22;42331;53.578;9.760;2022-08-11T14:39:52;28.40;77.90
56428;DHT22;42331;53.578;9.760;2022-08-11T14:42:25;28.40;78.60
56428;DHT22;42331;53.578;9.760;2022-08-11T14:45:15;28.40;79.20
56428;DHT22;42331;53.578;9.760;2022-08-11T14:48:07;28.40;77.90
56428;DHT22;42331;53.578;9.760;2022-08-11T14:50:38;28.50;79.20
56428;DHT22;42331;53.578;9.760;2022-08-11T14:53:10;28.40;81.10
56428;DHT22;42331;53.578;9.760;2022-08-11T14:55:41;28.30;79.60
56428;DHT22;42331;53.578;9.760;2022-08-11T14:58:31;28.40;80.50
56428;DHT22;42331;53.578;9.760;2022-08-11T15:01:03;28.40;79.00
56428;DHT22;42331;53.578;9.760;2022-08-11T15:03:54;28.40;78.70
56428;DHT22;42331;53.578;9.760;2022-08-11T15:06:25;28.30;80.80
56428;DHT22;42331;53.578;9.760;2022-08-11T15:08:57;28.30;78.70
56428;DHT22;42331;53.578;9.760;2022-08-11T15:11:29;28.30;79.80
56428;DHT22;42331;53.578;9.760;2022-08-11T15:14:19;28.20;79.40
56428;DHT22;42331;53.578;9.760;2022-08-11T15:17:09;28.30;78.60
56428;DHT22;42331;53.578;9.760;2022-08-11T15:19:43;28.40;78.30
56428;DHT22;42331;53.578;9.760;2022-08-11T15:22:32;28.40;78.80
56428;DHT22;42331;53.578;9.760;2022-08-11T15:25:22;28.40;77.40
56428;DHT22;42331;53.578;9.760;2022-08-11T15:27:52;28.40;78.30
56428;DHT22;42331;53.578;9.760;2022-08-11T15:30:42;28.40;77.50
56428;DHT22;42331;53.578;9.760;2022-08-11T15:33:32;28.30;79.70
56428;DHT22;42331;53.578;9.760;2022-08-11T15:36:23;28.20;77.90
56428;DHT22;42331;53.578;9.760;2022-08-11T15:39:18;28.10;78.30
56428;DHT22;42331;53.578;9.760;2022-08-11T15:42:31;28.00;79.90
56428;DHT22;42331;53.578;9.760;2022-08-11T15:45:02;28.00;79.10
56428;DHT22;42331;53.578;9.760;2022-08-11T15:47:57;27.90;81.50
56428;DHT22;42331;53.578;9.760;2022-08-11T15:50:29;27.80;81.70
56428;DHT22;42331;53.578;9.760;2022-08-11T15:53:02;27.90;80.50
56428;DHT22;42331;53.578;9.760;2022-08-11T15:55:34;28.00;78.60
56428;DHT22;42331;53.578;9.760;2022-08-11T15:58:07;27.90;80.00
56428;DHT22;42331;53.578;9.760;2022-08-11T16:00:57;27.90;78.70
56428;DHT22;42331;53.578;9.760;2022-08-11T16:03:59;27.80;80.30
56428;DHT22;42331;53.578;9.760;2022-08-11T16:06:50;27.80;78.80
56428;DHT22;42331;53.578;9.760;2022-08-11T16:09:23;27.80;77.50
56428;DHT22;42331;53.578;9.760;2022-08-11T16:11:56;27.80;78.10
56428;DHT22;42331;53.578;9.760;2022-08-11T16:14:33;27.70;79.30
56428;DHT22;42331;53.578;9.760;2022-08-11T16:17:25;27.60;80.10
56428;DHT22;42331;53.578;9.760;2022-08-11T16:19:56;27.60;81.50
56428;DHT22;42331;53.578;9.760;2022-08-11T16:22:28;27.60;82.90
56428;DHT22;42331;53.578;9.760;2022-08-11T16:25:09;27.50;84.90
56428;DHT22;42331;53.578;9.760;2022-08-11T16:27:42;27.50;86.10
56428;DHT22;42331;53.578;9.760;2022-08-11T16:30:14;27.40;87.00
56428;DHT22;42331;53.578;9.760;2022-08-11T16:32:46;27.40;87.80
56428;DHT22;42331;53.578;9.760;2022-08-11T16:35:23;27.30;89.60
56428;DHT22;42331;53.578;9.760;2022-08-11T16:38:12;27.20;89.50
56428;DHT22;42331;53.578;9.760;2022-08-11T16:41:16;27.30;90.10
56428;DHT22;42331;53.578;9.760;2022-08-11T16:44:11;27.30;89.60
56428;DHT22;42331;53.578;9.760;2022-08-11T16:47:01;27.20;89.80
56428;DHT22;42331;53.578;9.760;2022-08-11T16:49:51;27.10;89.00
56428;DHT22;42331;53.578;9.760;2022-08-11T16:52:23;27.10;90.00
56428;DHT22;42331;53.578;9.760;2022-08-11T16:54:53;27.10;90.20
56428;DHT22;42331;53.578;9.760;2022-08-11T16:57:25;27.10;90.80
56428;DHT22;42331;53.578;9.760;2022-08-11T17:00:15;27.00;90.20
56428;DHT22;42331;53.578;9.760;2022-08-11T17:02:50;27.00;90.40
56428;DHT22;42331;53.578;9.760;2022-08-11T17:05:48;26.90;89.90
56428;DHT22;42331;53.578;9.760;2022-08-11T17:08:39;26.80;90.10
56428;DHT22;42331;53.578;9.760;2022-08-11T17:11:32;26.90;91.10
56428;DHT22;42331;53.578;9.760;2022-08-11T17:14:23;26.90;90.60
56428;DHT22;42331;53.578;9.760;2022-08-11T17:16:54;26.80;91.60
56428;DHT22;42331;53.578;9.760;2022-08-11T17:19:27;26.80;91.70
56428;DHT22;42331;53.578;9.760;2022-08-11T17:22:00;26.70;91.00
56428;DHT22;42331;53.578;9.760;2022-08-11T17:24:50;26.70;91.30
56428;DHT22;42331;53.578;9.760;2022-08-11T17:27:22;26.70;91.50
56428;DHT22;42331;53.578;9.760;2022-08-11T17:29:55;26.50;92.20
56428;DHT22;42331;53.578;9.760;2022-08-11T17:32:46;26.50;92.40
56428;DHT22;42331;53.578;9.760;2022-08-11T17:35:37;26.50;92.50
56428;DHT22;42331;53.578;9.760;2022-08-11T17:40:40;26.40;91.80
56428;DHT22;42331;53.578;9.760;2022-08-11T17:43:31;26.40;91.80
56428;DHT22;42331;53.578;9.760;2022-08-11T17:46:21;26.30;91.80
56428;DHT22;42331;53.578;9.760;2022-08-11T17:49:11;26.30;91.70
56428;DHT22;42331;53.578;9.760;2022-08-11T17:51:43;26.20;92.60
56428;DHT22;42331;53.578;9.760;2022-08-11T17:54:33;26.10;92.10
56428;DHT22;42331;53.578;9.760;2022-08-11T17:57:22;26.10;92.30
56428;DHT22;42331;53.578;9.760;2022-08-11T18:00:12;26.00;92.20
56428;DHT22;42331;53.578;9.760;2022-08-11T18:02:43;25.90;92.60
56428;DHT22;42331;53.578;9.760;2022-08-11T18:05:33;25.80;92.50
56428;DHT22;42331;53.578;9.760;2022-08-11T18:08:05;25.80;92.80
56428;DHT22;42331;53.578;9.760;2022-08-11T18:10:55;25.70;93.30
56428;DHT22;42331;53.578;9.760;2022-08-11T18:13:45;25.60;93.30
56428;DHT22;42331;53.578;9.760;2022-08-11T18:16:35;25.40;94.00
56428;DHT22;42331;53.578;9.760;2022-08-11T18:19:24;25.30;94.10
56428;DHT22;42331;53.578;9.760;2022-08-11T18:22:19;25.30;93.80
56428;DHT22;42331;53.578;9.760;2022-08-11T18:25:11;25.10;94.00
56428;DHT22;42331;53.578;9.760;2022-08-11T18:28:01;25.10;94.30
56428;DHT22;42331;53.578;9.760;2022-08-11T18:30:53;25.00;95.40
56428;DHT22;42331;53.578;9.760;2022-08-11T18:33:50;24.90;95.50
56428;DHT22;42331;53.578;9.760;2022-08-11T18:36:43;24.80;95.50
56428;DHT22;42331;53.578;9.760;2022-08-11T18:39:33;24.70;95.80
56428;DHT22;42331;53.578;9.760;2022-08-11T18:42:23;24.60;96.10
56428;DHT22;42331;53.578;9.760;2022-08-11T18:45:13;24.50;96.60
56428;DHT22;42331;53.578;9.760;2022-08-11T18:48:05;24.40;97.60
56428;DHT22;42331;53.578;9.760;2022-08-11T18:50:56;24.30;97.80
56428;DHT22;42331;53.578;9.760;2022-08-11T18:53:51;24.20;98.60
56428;DHT22;42331;53.578;9.760;2022-08-11T18:56:41;24.00;98.80
56428;DHT22;42331;53.578;9.760;2022-08-11T18:59:31;24.00;98.40
56428;DHT22;42331;53.578;9.760;2022-08-11T19:02:21;23.90;98.90
56428;DHT22;42331;53.578;9.760;2022-08-11T19:05:12;23.90;99.70
56428;DHT22;42331;53.578;9.760;2022-08-11T19:08:02;23.70;99.90
56428;DHT22;42331;53.578;9.760;2022-08-11T19:10:52;23.60;99.90
56428;DHT22;42331;53.578;9.760;2022-08-11T19:13:41;23.50;99.90
56428;DHT22;42331;53.578;9.760;2022-08-11T19:16:30;23.50;99.90
56428;DHT22;42331;53.578;9.760;2022-08-11T19:19:20;23.40;99.90
56428;DHT22;42331;53.578;9.760;2022-08-11T19:22:09;23.40;99.90
56428;DHT22;42331;53.578;9.760;2022-08-11T19:25:00;23.40;99.90
56428;DHT22;42331;53.578;9.760;2022-08-11T19:27:51;23.30;99.90
56428;DHT22;42331;53.578;9.760;2022-08-11T19:30:41;23.20;99.90
56428;DHT22;42331;53.578;9.760;2022-08-11T19:33:31;23.20;99.90
56428;DHT22;42331;53.578;9.760;2022-08-11T19:36:20;23.10;99.90
56428;DHT22;42331;53.578;9.760;2022-08-11T19:39:10;23.00;99.90
56428;DHT22;42331;53.578;9.760;2022-08-11T19:41:59;22.90;99.90
56428;DHT22;42331;53.578;9.760;2022-08-11T19:44:49;22.90;99.90
56428;DHT22;42331;53.578;9.760;2022-08-11T19:47:39;22.90;99.90
56428;DHT22;42331;53.578;9.760;2022-08-11T19:50:30;22.80;99.90
56428;DHT22;42331;53.578;9.760;2022-08-11T19:53:19;22.70;99.90
56428;DHT22;42331;53.578;9.760;2022-08-11T19:56:09;22.60;99.90
56428;DHT22;42331;53.578;9.760;2022-08-11T19:58:59;22.50;99.90
56428;DHT22;42331;53.578;9.760;2022-08-11T20:01:49;22.40;99.90
56428;DHT22;42331;53.578;9.760;2022-08-11T20:04:38;22.40;99.90
56428;DHT22;42331;53.578;9.760;2022-08-11T20:07:27;22.30;99.90
56428;DHT22;42331;53.578;9.760;2022-08-11T20:10:19;22.30;99.90
56428;DHT22;42331;53.578;9.760;2022-08-11T20:13:08;22.20;99.90
56428;DHT22;42331;53.578;9.760;2022-08-11T20:15:59;22.10;99.90
56428;DHT22;42331;53.578;9.760;2022-08-11T20:18:49;22.10;99.90
56428;DHT22;42331;53.578;9.760;2022-08-11T20:21:39;22.00;99.90
56428;DHT22;42331;53.578;9.760;2022-08-11T20:24:29;21.90;99.90
56428;DHT22;42331;53.578;9.760;2022-08-11T20:27:19;21.80;99.90
56428;DHT22;42331;53.578;9.760;2022-08-11T20:30:09;21.80;99.90
56428;DHT22;42331;53.578;9.760;2022-08-11T20:32:58;21.70;99.90
56428;DHT22;42331;53.578;9.760;2022-08-11T20:35:48;21.60;99.90
56428;DHT22;42331;53.578;9.760;2022-08-11T20:38:38;21.60;99.90
56428;DHT22;42331;53.578;9.760;2022-08-11T20:41:28;21.60;99.90
56428;DHT22;42331;53.578;9.760;2022-08-11T20:44:17;21.50;99.90
56428;DHT22;42331;53.578;9.760;2022-08-11T20:47:08;21.40;99.90
56428;DHT22;42331;53.578;9.760;2022-08-11T20:49:58;21.30;99.90
56428;DHT22;42331;53.578;9.760;2022-08-11T20:52:49;21.30;99.90
56428;DHT22;42331;53.578;9.760;2022-08-11T20:55:39;21.20;99.90
56428;DHT22;42331;53.578;9.760;2022-08-11T20:58:29;21.20;99.90
56428;DHT22;42331;53.578;9.760;2022-08-11T21:01:19;21.10;99.90
56428;DHT22;42331;53.578;9.760;2022-08-11T21:04:08;21.00;99.90
56428;DHT22;42331;53.578;9.760;2022-08-11T21:06:59;21.00;99.90
56428;DHT22;42331;53.578;9.760;2022-08-11T21:09:51;20.90;99.90
56428;DHT22;42331;53.578;9.760;2022-08-11T21:12:41;20.90;99.90
56428;DHT22;42331;53.578;9.760;2022-08-11T21:15:32;20.80;99.90
56428;DHT22;42331;53.578;9.760;2022-08-11T21:18:22;20.70;99.90
56428;DHT22;42331;53.578;9.760;2022-08-11T21:21:12;20.70;99.90
56428;DHT22;42331;53.578;9.760;2022-08-11T21:24:02;20.60;99.90
56428;DHT22;42331;53.578;9.760;2022-08-11T21:26:52;20.60;99.90
56428;DHT22;42331;53.578;9.760;2022-08-11T21:29:41;20.50;99.90
56428;DHT22;42331;53.578;9.760;2022-08-11T21:32:32;20.40;99.90
56428;DHT22;42331;53.578;9.760;2022-08-11T21:35:21;20.40;99.90
56428;DHT22;42331;53.578;9.760;2022-08-11T21:38:11;20.30;99.90
56428;DHT22;42331;53.578;9.760;2022-08-11T21:41:01;20.30;99.90
56428;DHT22;42331;53.578;9.760;2022-08-11T21:43:50;20.30;99.90
56428;DHT22;42331;53.578;9.760;2022-08-11T21:46:40;20.20;99.90
56428;DHT22;42331;53.578;9.760;2022-08-11T21:49:29;20.20;99.90
56428;DHT22;42331;53.578;9.760;2022-08-11T21:52:19;20.10;99.90
56428;DHT22;42331;53.578;9.760;2022-08-11T21:55:09;20.10;99.90
56428;DHT22;42331;53.578;9.760;2022-08-11T21:57:58;20.00;99.90
56428;DHT22;42331;53.578;9.760;2022-08-11T22:00:48;20.00;99.90
56428;DHT22;42331;53.578;9.760;2022-08-11T22:03:37;19.90;99.90
56428;DHT22;42331;53.578;9.760;2022-08-11T22:06:26;19.90;99.90
56428;DHT22;42331;53.578;9.760;2022-08-11T22:09:17;19.90;99.90
56428;DHT22;42331;53.578;9.760;2022-08-11T22:12:06;19.80;99.90
56428;DHT22;42331;53.578;9.760;2022-08-11T22:14:55;19.80;99.90
56428;DHT22;42331;53.578;9.760;2022-08-11T22:17:44;19.80;99.90
56428;DHT22;42331;53.578;9.760;2022-08-11T22:20:33;19.70;99.90
56428;DHT22;42331;53.578;9.760;2022-08-11T22:23:23;19.70;99.90
56428;DHT22;42331;53.578;9.760;2022-08-11T22:26:13;19.70;99.90
56428;DHT22;42331;53.578;9.760;2022-08-11T22:29:02;19.60;99.90
56428;DHT22;42331;53.578;9.760;2022-08-11T22:31:52;19.60;99.90
56428;DHT22;42331;53.578;9.760;2022-08-11T22:34:42;19.60;99.90
56428;DHT22;42331;53.578;9.760;2022-08-11T22:37:31;19.50;99.90
56428;DHT22;42331;53.578;9.760;2022-08-11T22:40:21;19.50;99.90
56428;DHT22;42331;53.578;9.760;2022-08-11T22:43:10;19.50;99.90
56428;DHT22;42331;53.578;9.760;2022-08-11T22:45:59;19.40;99.90
56428;DHT22;42331;53.578;9.760;2022-08-11T22:48:48;19.40;99.90
56428;DHT22;42331;53.578;9.760;2022-08-11T22:51:39;19.30;99.90
56428;DHT22;42331;53.578;9.760;2022-08-11T22:54:28;19.30;99.90
56428;DHT22;42331;53.578;9.760;2022-08-11T22:57:19;19.20;99.90
56428;DHT22;42331;53.578;9.760;2022-08-11T23:00:09;19.10;99.90
56428;DHT22;42331;53.578;9.760;2022-08-11T23:02:58;19.10;99.90
56428;DHT22;42331;53.578;9.760;2022-08-11T23:05:48;19.00;99.90
56428;DHT22;42331;53.578;9.760;2022-08-11T23:08:37;19.00;99.90
56428;DHT22;42331;53.578;9.760;2022-08-11T23:11:26;18.80;99.90
56428;DHT22;42331;53.578;9.760;2022-08-11T23:14:16;18.80;99.90
56428;DHT22;42331;53.578;9.760;2022-08-11T23:17:07;18.70;99.90
56428;DHT22;42331;53.578;9.760;2022-08-11T23:19:59;18.70;99.90
56428;DHT22;42331;53.578;9.760;2022-08-11T23:22:48;18.60;99.90
56428;DHT22;42331;53.578;9.760;2022-08-11T23:25:38;18.60;99.90
56428;DHT22;42331;53.578;9.760;2022-08-11T23:28:27;18.50;99.90
56428;DHT22;42331;53.578;9.760;2022-08-11T23:31:22;18.50;99.90
56428;DHT22;42331;53.578;9.760;2022-08-11T23:34:17;18.50;99.90
56428;DHT22;42331;53.578;9.760;2022-08-11T23:37:06;18.40;99.90
56428;DHT22;42331;53.578;9.760;2022-08-11T23:39:55;18.30;99.90
56428;DHT22;42331;53.578;9.760;2022-08-11T23:42:45;18.20;99.90
56428;DHT22;42331;53.578;9.760;2022-08-11T23:45:34;18.10;99.90
56428;DHT22;42331;53.578;9.760;2022-08-11T23:48:24;18.00;99.90
56428;DHT22;42331;53.578;9.760;2022-08-11T23:51:15;17.90;99.90
56428;DHT22;42331;53.578;9.760;2022-08-11T23:54:05;17.90;99.90
56428;DHT22;42331;53.578;9.760;2022-08-11T23:56:54;17.90;99.90
56428;DHT22;42331;53.578;9.760;2022-08-11T23:59:43;17.80;99.90
